createdAt,value
2022-08-28T11:59:24.670Z,312.00
2022-08-28T12:02:15.472Z,170.00
2022-08-28T12:03:16.374Z,190.00
2022-08-28T12:05:04.633Z,170.00
2022-08-28T12:05:16.450Z,144.00
2022-08-28T12:08:05.381Z,114.00
2022-08-28T12:09:05.427Z,114.00
2022-08-28T12:10:05.427Z,110.00
2022-08-28T12:11:05.398Z,96.00
2022-08-28T12:12:06.209Z,99.00
2022-08-28T12:14:42.345Z,104.00
2022-08-28T12:18:53.203Z,106.00
2022-08-28T12:19:04.779Z,111.00
2022-08-28T12:26:12.654Z,184.00
2022-08-28T12:29:27.300Z,201.00
2022-08-28T12:30:27.200Z,183.00
2022-08-28T12:35:20.328Z,313.00
2022-08-28T12:36:20.319Z,297.00
2022-08-28T12:37:20.304Z,293.00
2022-08-28T12:38:20.288Z,303.00
2022-08-28T12:39:20.297Z,324.00
2022-08-28T12:40:20.359Z,317.00
2022-08-28T12:41:20.969Z,314.00
2022-08-28T12:44:59.979Z,368.00
2022-08-28T12:46:00.075Z,325.00
2022-08-28T12:46:59.973Z,352.00
2022-08-28T12:48:01.772Z,386.00
2022-08-28T12:48:59.975Z,410.00
2022-08-28T12:50:03.048Z,424.00
2022-08-28T12:52:36.540Z,496.00
2022-08-28T12:53:36.994Z,472.00
2022-08-28T12:54:36.980Z,470.00
2022-08-28T12:55:37.004Z,456.00
2022-08-28T12:56:36.964Z,518.00
2022-08-28T12:57:36.988Z,510.00
2022-08-28T12:58:38.603Z,511.00
2022-08-28T12:59:38.562Z,517.00
2022-08-28T13:00:37.239Z,519.00
2022-08-28T13:01:37.146Z,526.00
2022-08-28T13:02:36.998Z,452.00
2022-08-28T13:03:37.252Z,362.00
2022-08-28T13:04:36.941Z,463.00
2022-08-28T13:05:36.901Z,405.00
2022-08-28T13:06:36.896Z,517.00
2022-08-28T13:07:36.884Z,520.00
2022-08-28T13:08:36.881Z,571.00
2022-08-28T13:09:36.855Z,494.00
2022-08-28T13:10:36.885Z,538.00
2022-08-28T13:11:36.859Z,544.00
2022-08-28T13:12:55.281Z,542.00
2022-08-28T13:13:36.819Z,547.00
2022-08-28T13:15:08.186Z,558.00
2022-08-28T13:15:36.804Z,578.00
2022-08-28T13:16:36.934Z,557.00
2022-08-28T13:17:36.850Z,579.00
2022-08-28T13:18:36.782Z,642.00
2022-08-28T13:19:47.752Z,780.00
2022-08-28T13:20:39.066Z,567.00
2022-08-28T13:21:37.635Z,441.00
2022-08-28T13:22:36.745Z,715.00
2022-08-28T13:23:36.728Z,566.00
2022-08-28T13:24:36.713Z,499.00
2022-08-28T13:25:40.247Z,450.00
2022-08-28T13:26:36.701Z,499.00
2022-08-28T13:27:38.462Z,507.00
2022-08-28T13:28:36.676Z,486.00
2022-08-28T13:29:36.691Z,402.00
2022-08-28T13:30:36.715Z,291.00
2022-08-28T13:31:36.767Z,313.00
2022-08-28T13:32:36.737Z,210.00
2022-08-28T13:35:31.678Z,300.00
2022-08-28T13:38:20.673Z,364.00
2022-08-28T13:39:20.711Z,353.00
2022-08-28T13:40:53.319Z,322.00
2022-08-28T13:41:20.730Z,330.00
2022-08-28T13:42:21.816Z,319.00
2022-08-28T13:43:20.705Z,548.00
2022-08-28T13:44:20.691Z,425.00
2022-08-28T13:45:20.673Z,442.00
2022-08-28T13:46:20.733Z,455.00
2022-08-28T13:47:20.636Z,429.00
2022-08-28T13:48:20.646Z,461.00
2022-08-28T13:49:20.627Z,425.00
2022-08-28T13:50:20.604Z,414.00
2022-08-28T13:51:21.374Z,326.00
2022-08-28T13:52:20.597Z,338.00
2022-08-28T13:53:20.601Z,340.00
2022-08-28T13:54:20.576Z,416.00
2022-08-28T13:55:20.564Z,614.00
2022-08-28T13:56:21.849Z,284.00
2022-08-28T13:57:20.557Z,542.00
2022-08-28T13:58:20.555Z,426.00
2022-08-28T13:59:20.525Z,415.00
2022-08-28T14:00:20.535Z,445.00
2022-08-28T14:01:22.480Z,445.00
2022-08-28T14:02:20.557Z,316.00
2022-08-28T14:03:20.486Z,842.00
2022-08-28T14:04:20.492Z,542.00
2022-08-28T14:05:20.467Z,492.00
2022-08-28T14:06:20.487Z,467.00
2022-08-28T14:07:20.453Z,501.00
2022-08-28T14:08:20.435Z,504.00
2022-08-28T14:09:20.450Z,503.00
2022-08-28T14:10:20.446Z,507.00
2022-08-28T14:11:20.435Z,530.00
2022-08-28T14:12:20.412Z,550.00
2022-08-28T14:13:20.401Z,560.00
2022-08-28T14:14:20.402Z,566.00
2022-08-28T14:15:20.377Z,569.00
2022-08-28T14:16:20.427Z,553.00
2022-08-28T14:17:20.364Z,538.00
2022-08-28T14:18:20.393Z,519.00
2022-08-28T14:19:20.356Z,494.00
2022-08-28T14:20:20.345Z,477.00
2022-08-28T14:21:20.343Z,470.00
2022-08-28T14:22:20.319Z,458.00
2022-08-28T14:23:20.317Z,408.00
2022-08-28T14:24:20.312Z,369.00
2022-08-28T14:25:20.296Z,341.00
2022-08-28T14:26:20.274Z,326.00
2022-08-28T14:27:20.269Z,308.00
2022-08-28T14:28:20.257Z,297.00
2022-08-28T14:29:20.285Z,288.00
2022-08-28T14:30:20.270Z,276.00
2022-08-28T14:31:20.430Z,280.00
2022-08-28T14:32:20.226Z,284.00
2022-08-28T14:33:20.751Z,286.00
2022-08-28T14:34:20.334Z,287.00
2022-08-28T14:35:20.270Z,279.00
2022-08-28T14:36:20.202Z,268.00
2022-08-28T14:37:20.201Z,256.00
2022-08-28T14:38:20.172Z,230.00
2022-08-28T14:39:20.200Z,233.00
2022-08-28T14:40:20.245Z,218.00
2022-08-28T14:41:20.146Z,219.00
2022-08-28T14:42:20.141Z,229.00
2022-08-28T14:43:20.129Z,232.00
2022-08-28T14:44:20.120Z,252.00
2022-08-28T14:45:20.134Z,255.00
2022-08-28T14:46:20.149Z,233.00
2022-08-28T14:47:20.096Z,199.00
2022-08-28T14:48:20.080Z,220.00
2022-08-28T14:49:20.106Z,337.00
2022-08-28T14:50:20.075Z,376.00
2022-08-28T14:51:20.057Z,344.00
2022-08-28T14:52:20.078Z,352.00
2022-08-28T14:53:20.046Z,354.00
2022-08-28T14:54:20.030Z,344.00
2022-08-28T14:55:20.069Z,339.00
2022-08-28T14:56:20.007Z,390.00
2022-08-28T14:57:20.008Z,366.00
2022-08-28T14:58:19.987Z,372.00
2022-08-28T14:59:24.050Z,378.00
2022-08-28T15:00:20.017Z,364.00
2022-08-28T15:01:20.029Z,214.00
2022-08-28T15:02:19.967Z,408.00
2022-08-28T15:03:19.952Z,553.00
2022-08-28T15:04:20.002Z,332.00
2022-08-28T15:05:19.931Z,484.00
2022-08-28T15:06:19.931Z,397.00
2022-08-28T15:07:19.922Z,381.00
2022-08-28T15:08:19.909Z,275.00
2022-08-28T15:09:19.899Z,231.00
2022-08-28T15:10:19.881Z,373.00
2022-08-28T15:11:19.899Z,377.00
2022-08-28T15:12:19.864Z,397.00
2022-08-28T15:13:19.858Z,472.00
2022-08-28T15:14:19.846Z,535.00
2022-08-28T15:15:19.841Z,378.00
2022-08-28T15:16:19.912Z,383.00
2022-08-28T15:17:19.816Z,367.00
2022-08-28T15:18:19.807Z,409.00
2022-08-28T15:19:19.802Z,194.00
2022-08-28T15:20:19.790Z,499.00
2022-08-28T15:21:19.846Z,597.00
2022-08-28T15:22:27.093Z,421.00
2022-08-28T15:23:19.772Z,393.00
2022-08-28T15:24:19.870Z,386.00
2022-08-28T15:25:19.745Z,378.00
2022-08-28T15:26:19.835Z,365.00
2022-08-28T15:27:19.741Z,357.00
2022-08-28T15:28:19.716Z,344.00
2022-08-28T15:29:19.714Z,334.00
2022-08-28T15:30:19.694Z,296.00
2022-08-28T15:31:19.728Z,361.00
2022-08-28T15:32:19.690Z,276.00
2022-08-28T15:33:19.673Z,239.00
2022-08-28T15:34:19.662Z,594.00
2022-08-28T15:35:19.656Z,302.00
2022-08-28T15:36:19.643Z,374.00
2022-08-28T15:37:19.662Z,481.00
2022-08-28T15:38:19.626Z,494.00
2022-08-28T15:39:19.629Z,422.00
2022-08-28T15:40:19.657Z,413.00
2022-08-28T15:41:19.608Z,405.00
2022-08-28T15:42:19.603Z,392.00
2022-08-28T15:43:19.690Z,388.00
2022-08-28T15:44:19.605Z,381.00
2022-08-28T15:45:19.626Z,377.00
2022-08-28T15:46:19.553Z,370.00
2022-08-28T15:47:19.565Z,361.00
2022-08-28T15:48:19.540Z,357.00
2022-08-28T15:49:19.722Z,354.00
2022-08-28T15:50:19.868Z,350.00
2022-08-28T15:51:23.880Z,351.00
2022-08-28T15:52:19.535Z,356.00
2022-08-28T15:53:19.520Z,356.00
2022-08-28T15:54:19.483Z,348.00
2022-08-28T15:55:19.478Z,347.00
2022-08-28T15:56:19.470Z,349.00
2022-08-28T15:57:19.462Z,351.00
2022-08-28T15:58:19.464Z,347.00
2022-08-28T15:59:19.448Z,342.00
2022-08-28T16:00:19.438Z,345.00
2022-08-28T16:01:19.506Z,342.00
2022-08-28T16:02:19.552Z,336.00
2022-08-28T16:03:19.431Z,334.00
2022-08-28T16:04:19.400Z,322.00
2022-08-28T16:05:19.397Z,320.00
2022-08-28T16:06:19.378Z,322.00
2022-08-28T16:07:19.381Z,322.00
2022-08-28T16:08:19.380Z,294.00
2022-08-28T16:09:19.368Z,179.00
2022-08-28T16:10:19.344Z,295.00
2022-08-28T16:11:19.343Z,320.00
2022-08-28T16:12:19.331Z,319.00
2022-08-28T16:13:19.347Z,316.00
2022-08-28T16:14:21.120Z,311.00
2022-08-28T16:15:21.354Z,312.00
2022-08-28T16:16:19.323Z,324.00
2022-08-28T16:17:19.295Z,319.00
2022-08-28T16:18:19.282Z,316.00
2022-08-28T16:19:19.283Z,304.00
2022-08-28T16:20:19.261Z,288.00
2022-08-28T16:21:19.252Z,287.00
2022-08-28T16:22:19.243Z,285.00
2022-08-28T16:23:19.235Z,286.00
2022-08-28T16:24:19.241Z,285.00
2022-08-28T16:25:19.218Z,286.00
2022-08-28T16:26:19.206Z,282.00
2022-08-28T16:27:19.199Z,280.00
2022-08-28T16:28:19.190Z,273.00
2022-08-28T16:29:19.198Z,276.00
2022-08-28T16:30:19.170Z,273.00
2022-08-28T16:31:20.560Z,270.00
2022-08-28T16:32:19.153Z,260.00
2022-08-28T16:33:19.148Z,259.00
2022-08-28T16:34:19.671Z,256.00
2022-08-28T16:35:19.131Z,253.00
2022-08-28T16:36:19.460Z,244.00
2022-08-28T16:37:21.124Z,238.00
2022-08-28T16:38:19.095Z,239.00
2022-08-28T16:39:19.109Z,240.00
2022-08-28T16:40:19.143Z,237.00
2022-08-28T16:41:19.077Z,226.00
2022-08-28T16:42:19.064Z,224.00
2022-08-28T16:43:19.061Z,234.00
2022-08-28T16:44:19.064Z,236.00
2022-08-28T16:45:19.040Z,236.00
2022-08-28T16:46:19.081Z,238.00
2022-08-28T16:47:19.024Z,238.00
2022-08-28T16:48:19.044Z,243.00
2022-08-28T16:49:19.105Z,242.00
2022-08-28T16:50:18.992Z,238.00
2022-08-28T16:51:18.996Z,237.00
2022-08-28T16:52:18.978Z,236.00
2022-08-28T16:53:26.980Z,230.00
2022-08-28T16:54:18.978Z,235.00
2022-08-28T16:55:18.954Z,191.00
2022-08-28T16:56:18.964Z,190.00
2022-08-28T16:57:18.940Z,194.00
2022-08-28T16:58:19.066Z,190.00
2022-08-28T16:59:18.937Z,188.00
2022-08-28T17:00:18.997Z,186.00
2022-08-28T17:01:18.920Z,182.00
2022-08-28T17:02:19.042Z,184.00
2022-08-28T17:03:21.977Z,190.00
2022-08-28T17:04:18.880Z,194.00
2022-08-28T17:05:18.876Z,193.00
2022-08-28T17:06:18.852Z,189.00
2022-08-28T17:07:18.842Z,186.00
2022-08-28T17:08:18.841Z,183.00
2022-08-28T17:09:20.934Z,179.00
2022-08-28T17:10:18.830Z,172.00
2022-08-28T17:11:18.800Z,174.00
2022-08-28T17:12:18.813Z,176.00
2022-08-28T17:13:18.784Z,182.00
2022-08-28T17:14:18.781Z,165.00
2022-08-28T17:15:18.794Z,160.00
2022-08-28T17:16:18.823Z,159.00
2022-08-28T17:17:18.751Z,149.00
2022-08-28T17:18:18.740Z,144.00
2022-08-28T17:19:18.730Z,140.00
2022-08-28T17:20:18.741Z,131.00
2022-08-28T17:21:18.712Z,122.00
2022-08-28T17:22:18.718Z,119.00
2022-08-28T17:23:18.705Z,117.00
2022-08-28T17:24:18.689Z,116.00
2022-08-28T17:25:18.699Z,114.00
2022-08-28T17:26:18.678Z,115.00
2022-08-28T17:27:22.605Z,112.00
2022-08-28T17:28:18.654Z,111.00
2022-08-28T17:29:18.642Z,109.00
2022-08-28T17:30:18.643Z,108.00
2022-08-28T17:31:18.679Z,109.00
2022-08-28T17:32:18.616Z,100.00
2022-08-28T17:33:18.720Z,105.00
2022-08-28T17:34:20.511Z,102.00
2022-08-28T17:35:18.712Z,100.00
2022-08-28T17:36:32.386Z,93.00
2022-08-28T17:37:18.637Z,92.00
2022-08-28T17:38:18.556Z,88.00
2022-08-28T17:39:18.542Z,86.00
2022-08-28T17:40:18.720Z,80.00
2022-08-28T17:41:18.526Z,80.00
2022-08-28T17:42:18.520Z,73.00
2022-08-28T17:43:18.512Z,69.00
2022-08-28T17:44:18.499Z,68.00
2022-08-28T17:45:18.521Z,65.00
2022-08-28T17:46:18.649Z,61.00
2022-08-28T17:47:18.470Z,62.00
2022-08-28T17:48:18.533Z,56.00
2022-08-28T17:49:18.449Z,51.00
2022-08-28T17:50:18.464Z,52.00
2022-08-28T17:51:18.457Z,47.00
2022-08-28T17:52:18.431Z,46.00
2022-08-28T17:53:18.424Z,41.00
2022-08-28T17:54:18.563Z,42.00
2022-08-28T17:55:18.460Z,38.00
2022-08-28T17:56:20.283Z,34.00
2022-08-28T17:57:18.385Z,37.00
2022-08-28T17:58:18.568Z,29.00
2022-08-28T17:59:18.387Z,25.00
2022-08-28T18:00:18.362Z,24.00
2022-08-28T18:01:18.421Z,23.00
2022-08-28T18:02:18.350Z,20.00
2022-08-28T18:03:18.322Z,19.00
2022-08-28T18:04:23.607Z,18.00
2022-08-28T18:05:18.353Z,12.00
2022-08-28T18:06:18.298Z,15.00
2022-08-28T18:07:18.301Z,13.00
2022-08-28T18:08:18.287Z,11.00
2022-08-28T18:09:18.274Z,7.00
2022-08-28T18:10:18.280Z,8.00
2022-08-28T18:11:18.249Z,6.00
2022-08-28T18:12:18.256Z,6.00
2022-08-28T18:13:18.233Z,6.00
2022-08-28T18:14:18.238Z,3.00
2022-08-28T18:15:18.212Z,2.00
2022-08-28T18:16:18.257Z,1.00
2022-08-28T18:17:18.209Z,4.00
2022-08-28T18:18:18.194Z,5.00
2022-08-28T18:19:18.204Z,4.00
2022-08-28T18:20:18.218Z,4.00
2022-08-28T18:21:18.224Z,0.00
2022-08-28T18:22:29.654Z,0.00
2022-08-28T18:23:18.215Z,0.00
2022-08-28T18:24:18.231Z,0.00
2022-08-28T18:25:18.147Z,1.00
2022-08-28T18:26:18.119Z,1.00
2022-08-28T18:27:18.113Z,1.00
2022-08-28T18:28:22.123Z,0.00
2022-08-28T18:29:18.142Z,0.00
2022-08-28T18:30:18.142Z,0.00
2022-08-28T18:31:18.217Z,0.00
2022-08-28T18:32:18.118Z,0.00
2022-08-28T18:33:18.118Z,0.00
2022-08-28T18:34:18.130Z,0.00
2022-08-28T18:35:18.137Z,0.00
2022-08-28T18:36:18.112Z,0.00
2022-08-28T18:37:18.070Z,0.00
2022-08-28T18:38:18.071Z,0.00
2022-08-28T18:39:29.692Z,0.00
2022-08-28T18:40:18.088Z,0.00
2022-08-28T18:41:18.073Z,0.00
2022-08-28T18:42:18.875Z,0.00
2022-08-28T18:43:18.136Z,0.00
2022-08-28T18:44:22.403Z,0.00
2022-08-28T18:45:18.138Z,0.00
2022-08-28T18:46:18.064Z,0.00
2022-08-28T18:47:17.990Z,0.00
2022-08-28T18:48:17.986Z,0.00
2022-08-28T18:49:18.005Z,0.00
2022-08-28T18:50:18.025Z,0.00
2022-08-28T18:51:21.743Z,0.00
2022-08-28T18:52:17.951Z,0.00
2022-08-28T18:53:17.939Z,0.00
2022-08-28T18:54:17.948Z,0.00
2022-08-28T18:55:17.928Z,0.00
2022-08-28T18:56:17.914Z,0.00
2022-08-28T18:57:18.047Z,0.00
2022-08-28T18:58:17.929Z,0.00
2022-08-28T18:59:17.907Z,0.00
2022-08-28T19:00:17.954Z,0.00
2022-08-28T19:01:17.927Z,0.00
2022-08-28T19:02:17.983Z,0.00
2022-08-28T19:03:17.838Z,0.00
2022-08-28T19:04:17.842Z,0.00
2022-08-28T19:05:18.003Z,0.00
2022-08-28T19:06:17.819Z,0.00
2022-08-28T19:07:17.813Z,0.00
2022-08-28T19:08:17.820Z,0.00
2022-08-28T19:09:20.201Z,0.00
2022-08-28T19:10:32.754Z,0.00
2022-08-28T19:11:17.774Z,0.00
2022-08-28T19:12:17.769Z,0.00
2022-08-28T19:13:17.750Z,0.00
2022-08-28T19:14:17.745Z,0.00
2022-08-28T19:15:17.759Z,0.00
2022-08-28T19:16:17.915Z,0.00
2022-08-28T19:17:21.004Z,0.00
2022-08-28T19:18:17.712Z,0.00
2022-08-28T19:19:17.720Z,0.00
2022-08-28T19:20:17.721Z,0.00
2022-08-28T19:21:17.710Z,0.00
2022-08-28T19:22:17.703Z,0.00
2022-08-28T19:23:18.099Z,0.00
2022-08-28T19:24:17.683Z,0.00
2022-08-28T19:25:27.619Z,0.00
2022-08-28T19:26:17.643Z,0.00
2022-08-28T19:27:17.645Z,0.00
2022-08-28T19:28:17.620Z,0.00
2022-08-28T19:29:17.610Z,0.00
2022-08-28T19:30:17.602Z,0.00
2022-08-28T19:31:17.785Z,0.00
2022-08-28T19:32:17.601Z,0.00
2022-08-28T19:33:17.573Z,0.00
2022-08-28T19:34:17.591Z,0.00
2022-08-28T19:35:17.593Z,0.00
2022-08-28T19:36:17.594Z,0.00
2022-08-28T19:37:17.541Z,0.00
2022-08-28T19:38:17.565Z,0.00
2022-08-28T19:39:17.552Z,0.00
2022-08-28T19:40:17.549Z,0.00
2022-08-28T19:41:17.531Z,0.00
2022-08-28T19:42:17.503Z,0.00
2022-08-28T19:43:17.494Z,0.00
2022-08-28T19:44:17.494Z,0.00
2022-08-28T19:45:17.492Z,0.00
2022-08-28T19:46:19.505Z,0.00
2022-08-28T19:47:17.476Z,0.00
2022-08-28T19:48:17.454Z,0.00
2022-08-28T19:49:17.439Z,0.00
2022-08-28T19:50:17.440Z,0.00
2022-08-28T19:51:22.928Z,0.00
2022-08-28T19:52:17.411Z,0.00
2022-08-28T19:53:17.409Z,0.00
2022-08-28T19:54:17.398Z,0.00
2022-08-28T19:55:17.384Z,0.00
2022-08-28T19:56:17.391Z,0.00
2022-08-28T19:57:17.392Z,0.00
2022-08-28T19:58:17.408Z,0.00
2022-08-28T19:59:17.337Z,0.00
2022-08-28T20:00:17.335Z,0.00
2022-08-28T20:01:17.364Z,0.00
2022-08-28T20:02:17.354Z,0.00
2022-08-28T20:03:17.313Z,0.00
2022-08-28T20:04:17.296Z,0.00
2022-08-28T20:05:17.283Z,0.00
2022-08-28T20:06:17.291Z,0.00
2022-08-28T20:07:17.261Z,0.00
2022-08-28T20:08:17.352Z,0.00
2022-08-28T20:09:17.259Z,0.00
2022-08-28T20:10:17.239Z,0.00
2022-08-28T20:11:17.241Z,0.00
2022-08-28T20:12:17.223Z,0.00
2022-08-28T20:13:17.220Z,0.00
2022-08-28T20:14:17.206Z,0.00
2022-08-28T20:15:17.193Z,0.00
2022-08-28T20:16:17.241Z,0.00
2022-08-28T20:17:17.172Z,0.00
2022-08-28T20:18:17.180Z,0.00
2022-08-28T20:19:17.154Z,0.00
2022-08-28T20:20:17.152Z,0.00
2022-08-28T20:21:17.135Z,0.00
2022-08-28T20:22:17.145Z,0.00
2022-08-28T20:23:17.167Z,0.00
2022-08-28T20:24:17.124Z,0.00
2022-08-28T20:25:17.101Z,0.00
2022-08-28T20:26:17.097Z,0.00
2022-08-28T20:27:17.088Z,0.00
2022-08-28T20:28:17.100Z,0.00
2022-08-28T20:29:17.063Z,0.00
2022-08-28T20:30:17.061Z,0.00
2022-08-28T20:31:17.207Z,0.00
2022-08-28T20:32:17.049Z,0.00
2022-08-28T20:33:17.060Z,0.00
2022-08-28T20:34:17.030Z,0.00
2022-08-28T20:35:17.108Z,0.00
2022-08-28T20:36:20.977Z,0.00
2022-08-28T20:37:16.992Z,0.00
2022-08-28T20:38:16.995Z,0.00
2022-08-28T20:39:17.008Z,0.00
2022-08-28T20:40:17.099Z,0.00
2022-08-28T20:41:16.958Z,0.00
2022-08-28T20:42:16.974Z,0.00
2022-08-28T20:43:16.958Z,0.00
2022-08-28T20:44:16.950Z,0.00
2022-08-28T20:45:16.947Z,0.00
2022-08-28T20:46:17.019Z,0.00
2022-08-28T20:47:16.930Z,0.00
2022-08-28T20:48:16.926Z,0.00
2022-08-28T20:49:16.913Z,0.00
2022-08-28T20:50:16.885Z,0.00
2022-08-28T20:51:16.879Z,0.00
2022-08-28T20:52:16.870Z,0.00
2022-08-28T20:53:37.038Z,0.00
2022-08-28T20:54:16.894Z,0.00
2022-08-28T20:55:16.857Z,0.00
2022-08-28T20:56:16.831Z,0.00
2022-08-28T20:57:16.824Z,0.00
2022-08-28T20:58:16.825Z,0.00
2022-08-28T20:59:16.829Z,0.00
2022-08-28T21:00:16.796Z,0.00
2022-08-28T21:01:16.873Z,0.00
2022-08-28T21:02:16.784Z,0.00
2022-08-28T21:03:16.789Z,0.00
2022-08-28T21:04:16.777Z,0.00
2022-08-28T21:05:16.892Z,0.00
2022-08-28T21:06:16.829Z,0.00
2022-08-28T21:07:16.743Z,0.00
2022-08-28T21:08:16.785Z,0.00
2022-08-28T21:09:16.734Z,0.00
2022-08-28T21:10:17.043Z,0.00
2022-08-28T21:11:16.711Z,0.00
2022-08-28T21:12:16.714Z,0.00
2022-08-28T21:13:16.704Z,0.00
2022-08-28T21:14:16.678Z,0.00
2022-08-28T21:15:16.689Z,0.00
2022-08-28T21:16:16.682Z,0.00
2022-08-28T21:17:16.892Z,0.00
2022-08-28T21:18:16.647Z,0.00
2022-08-28T21:19:16.854Z,0.00
2022-08-28T21:20:16.626Z,0.00
2022-08-28T21:21:16.619Z,0.00
2022-08-28T21:22:17.430Z,0.00
2022-08-28T21:23:16.616Z,0.00
2022-08-28T21:24:16.579Z,0.00
2022-08-28T21:25:16.598Z,0.00
2022-08-28T21:26:16.587Z,0.00
2022-08-28T21:27:16.590Z,0.00
2022-08-28T21:28:16.829Z,0.00
2022-08-28T21:29:19.938Z,0.00
2022-08-28T21:30:16.580Z,0.00
2022-08-28T21:31:19.005Z,0.00
2022-08-28T21:32:16.549Z,0.00
2022-08-28T21:33:16.562Z,0.00
2022-08-28T21:34:18.232Z,0.00
2022-08-28T21:35:16.540Z,0.00
2022-08-28T21:36:16.540Z,0.00
2022-08-28T21:37:16.501Z,0.00
2022-08-28T21:38:16.486Z,0.00
2022-08-28T21:39:16.481Z,0.00
2022-08-28T21:40:16.511Z,0.00
2022-08-28T21:41:24.923Z,0.00
2022-08-28T21:42:25.944Z,0.00
2022-08-28T21:43:16.442Z,0.00
2022-08-28T21:44:16.402Z,0.00
2022-08-28T21:45:16.449Z,0.00
2022-08-28T21:46:18.283Z,0.00
2022-08-28T21:47:16.414Z,0.00
2022-08-28T21:48:18.132Z,0.00
2022-08-28T21:49:16.421Z,0.00
2022-08-28T21:50:16.416Z,0.00
2022-08-28T21:51:17.958Z,0.00
2022-08-28T21:52:16.666Z,0.00
2022-08-28T21:53:16.365Z,0.00
2022-08-28T21:54:16.355Z,0.00
2022-08-28T21:55:16.364Z,0.00
2022-08-28T21:56:16.366Z,0.00
2022-08-28T21:57:18.960Z,0.00
2022-08-28T21:58:16.333Z,0.00
2022-08-28T21:59:16.303Z,0.00
2022-08-28T22:00:16.305Z,0.00
2022-08-28T22:01:16.381Z,0.00
2022-08-28T22:02:16.324Z,0.00
2022-08-28T22:03:16.316Z,0.00
2022-08-28T22:04:16.262Z,0.00
2022-08-28T22:05:16.988Z,0.00
2022-08-28T22:06:16.501Z,0.00
2022-08-28T22:07:34.157Z,0.00
2022-08-28T22:08:18.496Z,0.00
2022-08-28T22:09:23.478Z,0.00
2022-08-28T22:10:16.229Z,0.00
2022-08-28T22:11:17.022Z,0.00
2022-08-28T22:12:16.224Z,0.00
2022-08-28T22:13:25.497Z,0.00
2022-08-28T22:16:27.177Z,0.00
